Time;durP1;ratioP1;P1;durP2;ratioP2;P2;SDS_P1;SDS_P2;PMS_P1;PMS_P2;Temp;Humidity;BMP_temperature;BMP_pressure;BME280_temperature;BME280_humidity;BME280_pressure;Samples;Min_cycle;Max_cycle;Signal;HPM_P1;HPM_P2
2021/11/10 00:02:25;;;;;;;6.85;3.95;;;10.80;65.90;;;;;;5072470;28;20039;-74
2021/11/10 00:04:51;;;;;;;6.60;4.38;;;10.80;65.70;;;;;;5072546;28;20027;-74
2021/11/10 00:07:17;;;;;;;6.28;4.30;;;10.80;65.60;;;;;;5072754;28;20032;-74
2021/11/10 00:09:42;;;;;;;5.55;4.25;;;10.80;65.90;;;;;;5072629;28;20024;-74
2021/11/10 00:12:08;;;;;;;7.32;5.40;;;10.80;66.70;;;;;;5072660;28;20115;-74
2021/11/10 00:14:34;;;;;;;7.10;4.93;;;10.80;66.80;;;;;;5072818;28;20028;-73
2021/11/10 00:17:01;;;;;;;10.15;4.82;;;10.80;66.50;;;;;;5072960;28;20056;-74
2021/11/10 00:19:26;;;;;;;8.52;4.63;;;10.80;66.40;;;;;;5076432;28;20131;-74
2021/11/10 00:21:52;;;;;;;5.97;4.35;;;10.70;66.20;;;;;;5076307;28;20158;-73
2021/11/10 00:24:19;;;;;;;9.10;4.50;;;10.70;66.50;;;;;;5076545;28;20039;-74
2021/11/10 00:26:44;;;;;;;5.78;4.40;;;10.70;66.40;;;;;;5076452;28;20028;-74
2021/11/10 00:29:10;;;;;;;7.70;4.35;;;10.70;66.80;;;;;;5076114;28;20096;-73
2021/11/10 00:31:36;;;;;;;9.30;4.20;;;10.70;67.40;;;;;;5076320;28;20041;-73
2021/11/10 00:34:01;;;;;;;6.55;4.40;;;10.70;66.40;;;;;;5076253;28;20036;-74
2021/11/10 00:36:27;;;;;;;6.93;4.05;;;10.60;66.80;;;;;;5075922;28;20582;-74
2021/11/10 00:38:53;;;;;;;9.52;4.38;;;10.50;67.10;;;;;;5075902;28;20025;-74
2021/11/10 00:41:18;;;;;;;7.38;4.10;;;10.60;67.60;;;;;;5076154;28;20039;-74
2021/11/10 00:43:45;;;;;;;7.75;4.15;;;10.50;68.00;;;;;;5075983;28;20028;-74
2021/11/10 00:46:10;;;;;;;7.65;3.83;;;10.60;68.20;;;;;;5075997;28;20028;-74
2021/11/10 00:48:37;;;;;;;6.95;4.15;;;10.60;67.90;;;;;;5076214;28;20029;-74
2021/11/10 00:51:03;;;;;;;6.10;3.60;;;10.60;68.00;;;;;;5076086;28;20028;-74
2021/11/10 00:53:29;;;;;;;5.28;3.58;;;10.60;67.60;;;;;;5076161;28;20028;-74
2021/11/10 00:55:54;;;;;;;6.78;3.42;;;10.60;68.10;;;;;;5075868;28;20053;-73
2021/11/10 00:58:20;;;;;;;6.55;3.92;;;10.60;67.80;;;;;;5075553;28;20103;-74
2021/11/10 01:00:46;;;;;;;6.25;3.72;;;10.70;68.30;;;;;;5074763;28;20522;-74
2021/11/10 01:03:12;;;;;;;4.65;3.03;;;10.70;67.90;;;;;;5075753;28;20048;-74
2021/11/10 01:05:39;;;;;;;9.63;3.17;;;10.70;68.30;;;;;;5075569;28;20024;-74
2021/11/10 01:08:06;;;;;;;7.03;3.60;;;10.70;68.10;;;;;;5075692;28;20013;-74
2021/11/10 01:10:32;;;;;;;5.90;3.47;;;10.70;67.70;;;;;;5075534;28;20032;-74
2021/11/10 01:12:59;;;;;;;7.07;3.65;;;10.70;67.50;;;;;;5075835;28;20040;-74
2021/11/10 01:15:25;;;;;;;5.25;3.60;;;10.80;67.30;;;;;;5075813;28;20020;-73
2021/11/10 01:17:51;;;;;;;5.15;3.50;;;10.80;67.30;;;;;;5075225;28;20175;-74
2021/11/10 01:20:17;;;;;;;7.15;3.70;;;10.80;67.10;;;;;;5075539;28;20107;-73
2021/11/10 01:22:43;;;;;;;6.85;4.50;;;10.80;66.80;;;;;;5075621;28;20024;-74
2021/11/10 01:25:10;;;;;;;5.60;3.75;;;10.80;66.90;;;;;;5075357;28;20028;-72
2021/11/10 01:27:36;;;;;;;5.72;3.72;;;10.90;66.90;;;;;;5075581;28;20029;-73
2021/11/10 01:30:07;;;;;;;5.75;4.00;;;10.90;66.60;;;;;;5074113;28;20491;-74
2021/11/10 01:32:32;;;;;;;7.10;4.15;;;10.90;66.70;;;;;;5074825;28;20029;-73
2021/11/10 01:34:58;;;;;;;7.47;3.80;;;10.80;66.90;;;;;;5075231;28;20027;-73
2021/11/10 01:37:24;;;;;;;6.50;3.83;;;10.80;66.90;;;;;;5075092;28;20025;-74
2021/11/10 01:39:50;;;;;;;7.07;4.03;;;10.90;66.90;;;;;;5075247;28;20029;-74
2021/11/10 01:42:16;;;;;;;6.68;3.58;;;10.80;67.00;;;;;;5073913;28;20028;-74
2021/11/10 01:44:41;;;;;;;6.90;3.10;;;10.80;66.70;;;;;;5074891;28;20501;-74
2021/11/10 01:47:10;;;;;;;5.15;3.40;;;10.80;66.70;;;;;;5075015;28;20052;-74
2021/11/10 01:49:38;;;;;;;4.97;3.10;;;10.80;66.20;;;;;;5075213;28;20070;-74
2021/11/10 01:52:05;;;;;;;6.68;3.50;;;10.80;66.20;;;;;;5075154;28;20071;-74
2021/11/10 01:54:33;;;;;;;5.43;3.50;;;10.70;66.10;;;;;;5074871;28;20074;-74
2021/11/10 01:57:00;;;;;;;6.70;3.70;;;10.70;66.70;;;;;;5074571;28;20036;-74
2021/11/10 01:59:34;;;;;;;6.57;3.38;;;10.70;66.40;;;;;;5071700;28;20564;-74
2021/11/10 02:02:03;;;;;;;5.57;3.20;;;10.70;66.50;;;;;;5071975;28;20035;-75
2021/11/10 02:04:30;;;;;;;5.90;3.65;;;10.70;66.60;;;;;;5072944;28;20091;-74
2021/11/10 02:06:58;;;;;;;6.40;3.60;;;10.70;67.00;;;;;;5074233;28;20469;-74
2021/11/10 02:09:24;;;;;;;5.97;3.65;;;10.70;67.00;;;;;;5074064;28;20024;-74
2021/11/10 02:11:54;;;;;;;6.47;3.45;;;10.70;67.00;;;;;;5074365;28;20032;-74
2021/11/10 02:14:22;;;;;;;6.57;3.75;;;10.70;67.20;;;;;;5074261;28;20063;-73
2021/11/10 02:16:49;;;;;;;4.47;3.30;;;10.70;67.60;;;;;;5074299;28;20033;-74
2021/11/10 02:19:16;;;;;;;5.05;3.35;;;10.70;67.50;;;;;;5074036;28;20422;-74
2021/11/10 02:21:48;;;;;;;5.80;3.15;;;10.60;67.60;;;;;;5073863;28;20013;-74
2021/11/10 02:24:16;;;;;;;7.07;3.60;;;10.60;67.40;;;;;;5074588;28;20100;-73
2021/11/10 02:26:43;;;;;;;6.28;3.40;;;10.60;67.10;;;;;;5074222;28;20024;-74
2021/11/10 02:29:18;;;;;;;4.50;3.42;;;10.60;67.20;;;;;;5073898;28;20027;-74
2021/11/10 02:31:45;;;;;;;6.60;3.60;;;10.60;67.30;;;;;;5074267;28;20028;-75
2021/11/10 02:34:11;;;;;;;5.25;3.60;;;10.60;67.60;;;;;;5073909;28;20028;-74
2021/11/10 02:36:37;;;;;;;6.40;3.95;;;10.60;67.90;;;;;;5073792;28;20020;-74
2021/11/10 02:39:09;;;;;;;6.33;3.57;;;10.60;68.30;;;;;;5073347;28;20032;-74
2021/11/10 02:41:37;;;;;;;5.00;3.10;;;10.60;68.20;;;;;;5073245;28;20031;-74
2021/11/10 02:44:05;;;;;;;3.75;2.85;;;10.60;69.20;;;;;;5073413;28;20029;-74
2021/11/10 02:46:33;;;;;;;4.75;2.90;;;10.60;68.80;;;;;;5073492;28;20036;-74
2021/11/10 02:48:59;;;;;;;5.63;3.50;;;10.60;69.20;;;;;;5073335;28;20082;-74
2021/11/10 02:51:24;;;;;;;5.97;3.40;;;10.60;69.40;;;;;;5073259;28;20469;-74
2021/11/10 02:53:50;;;;;;;4.82;3.30;;;10.60;69.20;;;;;;5073705;28;20401;-74
2021/11/10 02:56:16;;;;;;;4.07;3.05;;;10.60;69.50;;;;;;5073522;28;20404;-74
2021/11/10 02:58:42;;;;;;;6.80;3.35;;;10.50;69.20;;;;;;5073444;28;20063;-74
2021/11/10 03:01:08;;;;;;;6.00;3.50;;;10.50;69.30;;;;;;5073460;28;20059;-74
2021/11/10 03:03:34;;;;;;;4.63;3.22;;;10.50;69.10;;;;;;5073562;28;20128;-74
2021/11/10 03:06:00;;;;;;;7.50;3.15;;;10.50;69.10;;;;;;5073570;28;20024;-75
2021/11/10 03:08:26;;;;;;;5.53;2.85;;;10.50;68.90;;;;;;5073248;28;20385;-74
2021/11/10 03:10:52;;;;;;;5.82;3.10;;;10.40;67.70;;;;;;5073570;28;20366;-74
2021/11/10 03:13:18;;;;;;;4.32;2.90;;;10.50;68.20;;;;;;5073435;28;20041;-74
2021/11/10 03:15:45;;;;;;;5.93;2.95;;;10.50;68.10;;;;;;5073247;28;20074;-74
2021/11/10 03:18:12;;;;;;;5.15;3.20;;;10.50;68.30;;;;;;5073089;28;20045;-74
2021/11/10 03:20:38;;;;;;;4.45;2.97;;;10.40;68.10;;;;;;5073090;28;20107;-74
2021/11/10 03:23:04;;;;;;;9.57;3.75;;;10.50;67.40;;;;;;5073001;28;20112;-74
2021/11/10 03:25:30;;;;;;;4.53;3.03;;;10.50;67.10;;;;;;5073148;28;20031;-74
2021/11/10 03:27:57;;;;;;;3.97;2.78;;;10.50;67.20;;;;;;5073009;28;20048;-74
2021/11/10 03:30:22;;;;;;;5.25;2.75;;;10.50;67.00;;;;;;5072895;28;20031;-74
2021/11/10 03:32:51;;;;;;;4.68;2.92;;;10.50;66.90;;;;;;5072962;28;20092;-74
2021/11/10 03:35:17;;;;;;;4.35;3.00;;;10.50;67.10;;;;;;5072868;28;20158;-74
2021/11/10 03:37:43;;;;;;;3.45;2.50;;;10.60;67.30;;;;;;5073042;28;20025;-74
2021/11/10 03:40:10;;;;;;;4.67;2.80;;;10.60;67.30;;;;;;5072896;28;20020;-74
2021/11/10 03:42:36;;;;;;;6.87;3.10;;;10.60;66.70;;;;;;5073005;28;20119;-74
2021/11/10 03:45:03;;;;;;;6.00;3.00;;;10.60;66.50;;;;;;5072917;28;20044;-74
2021/11/10 03:47:28;;;;;;;5.05;2.90;;;10.60;66.50;;;;;;5073026;28;20499;-74
2021/11/10 03:49:54;;;;;;;3.22;2.63;;;10.60;66.40;;;;;;5072703;28;20024;-74
2021/11/10 03:52:20;;;;;;;3.93;2.90;;;10.60;66.20;;;;;;5071717;28;20506;-74
2021/11/10 03:54:47;;;;;;;4.40;2.78;;;10.60;66.00;;;;;;5072776;28;20051;-74
2021/11/10 03:57:12;;;;;;;5.88;2.65;;;10.70;66.10;;;;;;5072800;28;20407;-74
2021/11/10 03:59:39;;;;;;;4.75;3.03;;;10.60;66.20;;;;;;5072351;28;20048;-74
2021/11/10 04:02:06;;;;;;;5.88;2.88;;;10.70;66.10;;;;;;5072637;28;20431;-74
2021/11/10 04:04:32;;;;;;;4.72;2.83;;;10.60;66.10;;;;;;5072531;28;20056;-74
2021/11/10 04:06:58;;;;;;;5.72;2.80;;;10.70;66.20;;;;;;5072683;28;20048;-74
2021/11/10 04:09:23;;;;;;;5.45;2.72;;;10.70;66.10;;;;;;5072678;28;20017;-74
2021/11/10 04:11:49;;;;;;;7.88;2.65;;;10.70;66.20;;;;;;5072631;28;20103;-74
2021/11/10 04:14:15;;;;;;;6.25;3.20;;;10.70;66.20;;;;;;5072631;28;20024;-74
2021/11/10 04:16:41;;;;;;;3.97;2.90;;;10.70;66.40;;;;;;5072452;28;20097;-74
2021/11/10 04:19:07;;;;;;;6.68;2.60;;;10.60;66.80;;;;;;5072464;28;20082;-74
2021/11/10 04:21:33;;;;;;;6.05;2.72;;;10.70;66.80;;;;;;5072477;28;20059;-74
2021/11/10 04:23:59;;;;;;;5.53;2.58;;;10.70;67.00;;;;;;5072411;28;20021;-74
2021/11/10 04:26:29;;;;;;;4.45;3.05;;;10.60;67.30;;;;;;5072504;28;20187;-74
2021/11/10 04:28:55;;;;;;;5.97;3.10;;;10.60;68.20;;;;;;5072330;28;20469;-74
2021/11/10 04:31:21;;;;;;;4.55;2.90;;;10.60;68.00;;;;;;5072381;28;20024;-74
2021/11/10 04:33:47;;;;;;;4.88;2.83;;;10.50;67.70;;;;;;5072068;28;20031;-74
2021/11/10 04:36:14;;;;;;;4.05;2.83;;;10.50;68.10;;;;;;5072365;28;20484;-74
2021/11/10 04:38:40;;;;;;;5.45;3.38;;;10.50;68.50;;;;;;5072406;28;20025;-74
2021/11/10 04:41:06;;;;;;;10.52;3.38;;;10.50;68.20;;;;;;5072484;28;20112;-74
2021/11/10 04:43:32;;;;;;;6.85;2.72;;;10.50;68.40;;;;;;5072481;28;20104;-74
2021/11/10 04:46:12;;;;;;;5.22;3.10;;;10.40;68.50;;;;;;5072459;28;20045;-74
2021/11/10 04:48:38;;;;;;;5.93;3.45;;;10.40;68.70;;;;;;5072396;28;20028;-74
2021/11/10 04:51:09;;;;;;;5.38;2.70;;;10.40;69.00;;;;;;5072333;28;20019;-74
2021/11/10 04:53:39;;;;;;;5.30;2.95;;;10.40;69.40;;;;;;5072172;28;20497;-74
2021/11/10 04:56:05;;;;;;;6.90;2.90;;;10.30;69.10;;;;;;5072448;28;20100;-74
2021/11/10 04:58:32;;;;;;;6.40;3.03;;;10.30;69.60;;;;;;5071981;28;20025;-75
2021/11/10 05:00:58;;;;;;;5.30;3.10;;;10.30;69.80;;;;;;5072062;28;20100;-74
2021/11/10 05:03:23;;;;;;;4.28;2.80;;;10.30;69.70;;;;;;5073523;28;20044;-74
2021/11/10 05:05:49;;;;;;;8.02;2.88;;;10.30;69.50;;;;;;5075755;28;20059;-73
2021/11/10 05:08:16;;;;;;;9.98;3.65;;;10.30;69.30;;;;;;5091422;28;20036;-73
2021/11/10 05:10:41;;;;;;;5.03;3.20;;;10.30;68.80;;;;;;5075785;28;20115;-74
2021/11/10 05:13:07;;;;;;;4.60;3.20;;;10.30;69.00;;;;;;5075442;28;20128;-74
2021/11/10 05:15:33;;;;;;;7.10;3.35;;;10.30;69.00;;;;;;5075409;28;20025;-74
2021/11/10 05:17:59;;;;;;;5.97;2.88;;;10.30;68.80;;;;;;5075189;28;20111;-74
2021/11/10 05:20:25;;;;;;;6.07;4.00;;;10.30;68.90;;;;;;5075288;28;20017;-74
2021/11/10 05:22:51;;;;;;;8.33;3.20;;;10.40;69.30;;;;;;5075169;28;20099;-74
2021/11/10 05:25:17;;;;;;;3.97;2.83;;;10.30;70.00;;;;;;5075297;28;20017;-74
2021/11/10 05:27:43;;;;;;;4.93;3.47;;;10.30;69.20;;;;;;5075146;28;20032;-75
2021/11/10 05:30:11;;;;;;;6.10;3.20;;;10.20;69.00;;;;;;5075401;28;20032;-74
2021/11/10 05:32:37;;;;;;;6.17;2.77;;;10.30;69.10;;;;;;5075287;28;20059;-74
2021/11/10 05:35:03;;;;;;;4.77;3.00;;;10.30;68.80;;;;;;5075095;28;20102;-74
2021/11/10 05:37:29;;;;;;;5.28;3.00;;;10.30;68.50;;;;;;5075203;28;20711;-74
2021/11/10 05:39:56;;;;;;;7.20;3.60;;;10.30;68.40;;;;;;5075171;28;20111;-75
2021/11/10 05:42:25;;;;;;;4.33;3.03;;;10.30;68.70;;;;;;5075052;28;20036;-74
2021/11/10 05:44:52;;;;;;;5.50;3.47;;;10.30;68.70;;;;;;5074756;28;20024;-73
2021/11/10 05:47:18;;;;;;;6.28;3.45;;;10.30;68.40;;;;;;5074933;28;20035;-74
2021/11/10 05:49:43;;;;;;;4.28;3.42;;;10.30;68.30;;;;;;5074890;28;20017;-73
2021/11/10 05:52:10;;;;;;;3.83;2.92;;;10.30;68.10;;;;;;5074813;28;20384;-74
2021/11/10 05:54:37;;;;;;;5.35;3.45;;;10.30;68.00;;;;;;5074562;28;20111;-74
2021/11/10 05:57:04;;;;;;;5.53;3.70;;;10.30;68.00;;;;;;5074209;28;20036;-74
2021/11/10 05:59:30;;;;;;;6.65;3.72;;;10.40;68.10;;;;;;5074321;28;20020;-74
2021/11/10 06:01:56;;;;;;;6.47;3.95;;;10.40;67.90;;;;;;5074735;28;20357;-74
2021/11/10 06:04:22;;;;;;;8.40;4.00;;;10.40;67.80;;;;;;5074842;28;20107;-74
2021/11/10 06:06:48;;;;;;;7.05;3.85;;;10.40;67.50;;;;;;5074828;28;20533;-73
2021/11/10 06:09:14;;;;;;;6.55;3.40;;;10.40;67.30;;;;;;5074534;28;20078;-73
2021/11/10 06:11:41;;;;;;;6.22;3.08;;;10.40;67.30;;;;;;5074355;28;20028;-74
2021/11/10 06:14:07;;;;;;;7.32;3.40;;;10.40;67.30;;;;;;5074684;28;20123;-72
2021/11/10 06:16:33;;;;;;;5.05;3.30;;;10.40;67.30;;;;;;5071421;28;20074;-73
2021/11/10 06:18:58;;;;;;;7.65;3.28;;;10.40;67.40;;;;;;5073683;28;20172;-73
2021/11/10 06:21:24;;;;;;;6.95;3.22;;;10.50;67.80;;;;;;5073393;28;20035;-73
2021/11/10 06:23:50;;;;;;;7.15;3.55;;;10.40;68.00;;;;;;5074668;28;20101;-73
2021/11/10 06:26:16;;;;;;;9.90;3.47;;;10.40;68.80;;;;;;5073562;28;20036;-73
2021/11/10 06:28:41;;;;;;;5.45;3.72;;;10.40;68.10;;;;;;5073766;28;20112;-73
2021/11/10 06:31:07;;;;;;;5.40;3.30;;;10.50;68.10;;;;;;5073136;28;20437;-72
2021/11/10 06:33:33;;;;;;;7.78;3.80;;;10.50;67.80;;;;;;5072719;28;20033;-73
2021/11/10 06:35:59;;;;;;;7.45;4.00;;;10.50;67.80;;;;;;5073619;28;20024;-73
2021/11/10 06:38:25;;;;;;;7.63;3.60;;;10.50;67.50;;;;;;5073778;28;20515;-73
2021/11/10 06:40:50;;;;;;;4.47;3.53;;;10.60;67.30;;;;;;5065469;28;20021;-73
2021/11/10 06:43:16;;;;;;;5.80;3.28;;;10.60;67.80;;;;;;5053864;28;20067;-72
2021/11/10 06:45:42;;;;;;;4.72;3.75;;;10.60;67.90;;;;;;5053514;28;20101;-72
2021/11/10 06:48:08;;;;;;;4.82;3.80;;;10.60;68.00;;;;;;5053883;28;20424;-72
2021/11/10 06:50:34;;;;;;;9.32;3.83;;;10.60;67.80;;;;;;5053789;28;20474;-70
2021/11/10 06:52:59;;;;;;;4.93;3.20;;;10.70;67.60;;;;;;5053927;28;20040;-70
2021/11/10 06:55:25;;;;;;;8.63;3.40;;;10.70;67.50;;;;;;5053869;28;20426;-70
2021/11/10 06:57:51;;;;;;;5.88;3.45;;;10.80;67.40;;;;;;5053860;28;20021;-71
2021/11/10 07:00:17;;;;;;;7.30;3.25;;;10.70;67.30;;;;;;5053815;28;20021;-72
2021/11/10 07:02:43;;;;;;;6.20;3.50;;;10.80;67.60;;;;;;5053410;28;20135;-71
2021/11/10 07:05:10;;;;;;;6.28;3.40;;;10.80;67.70;;;;;;5053616;28;20075;-72
2021/11/10 07:07:36;;;;;;;6.13;3.70;;;10.80;68.20;;;;;;5053879;28;20100;-72
2021/11/10 07:10:05;;;;;;;6.32;4.07;;;10.80;67.60;;;;;;5052719;28;20096;-72
2021/11/10 07:12:30;;;;;;;6.85;3.10;;;10.90;67.40;;;;;;5053426;28;20075;-71
2021/11/10 07:14:56;;;;;;;7.18;3.95;;;10.90;67.10;;;;;;5052248;28;20056;-71
2021/11/10 07:17:23;;;;;;;7.78;3.22;;;10.90;67.10;;;;;;5052031;28;20051;-71
2021/11/10 07:19:51;;;;;;;5.50;3.42;;;11.00;67.30;;;;;;5052097;28;20055;-72
2021/11/10 07:22:17;;;;;;;13.05;3.83;;;11.00;67.30;;;;;;5053419;28;20017;-76
2021/11/10 07:24:43;;;;;;;4.45;2.80;;;11.00;67.30;;;;;;5053360;28;20021;-75
2021/11/10 07:27:08;;;;;;;4.22;2.97;;;11.10;67.40;;;;;;5052798;28;20041;-72
2021/11/10 07:29:34;;;;;;;8.90;3.88;;;11.10;67.40;;;;;;5053313;28;20025;-75
2021/11/10 07:32:00;;;;;;;6.65;3.60;;;11.10;67.30;;;;;;5053180;28;20033;-72
2021/11/10 07:34:26;;;;;;;7.32;3.38;;;11.20;67.10;;;;;;5053177;28;20024;-71
2021/11/10 07:36:51;;;;;;;5.97;3.28;;;11.20;66.90;;;;;;5053118;28;20021;-72
2021/11/10 07:39:18;;;;;;;6.05;3.47;;;11.30;66.80;;;;;;5053233;28;20017;-69
2021/11/10 07:41:47;;;;;;;8.98;3.05;;;11.30;66.80;;;;;;5051659;28;20021;-70
2021/11/10 07:44:13;;;;;;;4.93;2.85;;;11.40;66.50;;;;;;5053216;28;20120;-71
2021/11/10 07:46:41;;;;;;;5.00;2.83;;;11.40;66.40;;;;;;5051892;28;20025;-72
2021/11/10 07:49:07;;;;;;;6.57;3.50;;;11.50;66.20;;;;;;5052916;28;20029;-72
2021/11/10 07:51:33;;;;;;;6.53;3.50;;;11.50;66.20;;;;;;5052693;28;20029;-71
2021/11/10 07:54:00;;;;;;;4.82;3.20;;;11.50;66.80;;;;;;5051620;28;20033;-70
2021/11/10 07:56:26;;;;;;;5.35;3.03;;;11.50;66.20;;;;;;5053561;28;20021;-70
2021/11/10 07:58:52;;;;;;;5.65;3.80;;;11.60;66.00;;;;;;5053076;28;20477;-69
2021/11/10 08:01:18;;;;;;;5.43;3.38;;;11.60;65.90;;;;;;5052777;28;20032;-71
2021/11/10 08:03:44;;;;;;;4.65;3.35;;;11.70;66.10;;;;;;5053019;28;20022;-71
2021/11/10 08:06:10;;;;;;;7.28;3.38;;;11.80;66.30;;;;;;5052749;28;20100;-70
2021/11/10 08:08:36;;;;;;;5.82;3.38;;;11.80;66.50;;;;;;5052671;28;20604;-71
2021/11/10 08:11:03;;;;;;;9.43;2.95;;;11.90;66.20;;;;;;5052670;28;20021;-71
2021/11/10 08:13:29;;;;;;;5.97;3.75;;;11.90;66.20;;;;;;5052988;28;20112;-71
2021/11/10 08:15:58;;;;;;;4.30;2.95;;;12.00;66.40;;;;;;5051349;28;20036;-71
2021/11/10 08:18:25;;;;;;;4.38;2.75;;;12.00;65.40;;;;;;5051783;28;20095;-71
2021/11/10 08:20:51;;;;;;;5.43;3.30;;;12.00;65.10;;;;;;5051167;28;20025;-72
2021/11/10 08:23:20;;;;;;;7.60;2.80;;;12.00;65.40;;;;;;5049681;28;20355;-70
2021/11/10 08:25:50;;;;;;;4.40;3.22;;;12.00;65.60;;;;;;5052635;28;20025;-71
2021/11/10 08:28:17;;;;;;;5.10;3.10;;;12.10;65.90;;;;;;5052835;28;20031;-71
2021/11/10 08:30:43;;;;;;;7.70;3.67;;;12.10;65.80;;;;;;5052654;28;20483;-71
2021/11/10 08:33:09;;;;;;;18.33;3.00;;;12.10;65.70;;;;;;5052492;28;20069;-72
2021/11/10 08:35:34;;;;;;;6.20;3.05;;;12.20;65.90;;;;;;5052786;28;20029;-71
2021/11/10 08:38:00;;;;;;;7.05;3.47;;;12.30;66.30;;;;;;5051714;28;20051;-71
2021/11/10 08:40:26;;;;;;;5.07;3.10;;;12.30;65.50;;;;;;5055020;28;20021;-72
2021/11/10 08:42:52;;;;;;;7.95;2.85;;;12.40;65.70;;;;;;5056601;28;20033;-70
2021/11/10 08:45:24;;;;;;;6.32;3.38;;;12.40;65.20;;;;;;5056684;28;20021;-71
2021/11/10 08:47:51;;;;;;;4.95;2.80;;;12.50;65.50;;;;;;5056392;28;20501;-70
2021/11/10 08:50:20;;;;;;;4.30;3.08;;;12.60;65.40;;;;;;5056517;28;20431;-70
2021/11/10 08:52:47;;;;;;;5.13;3.13;;;12.70;65.60;;;;;;5056473;28;20041;-70
2021/11/10 08:55:15;;;;;;;6.88;3.00;;;12.80;65.10;;;;;;5056473;28;20032;-70
2021/11/10 08:57:43;;;;;;;4.57;3.00;;;12.80;64.90;;;;;;5056424;28;20071;-71
2021/11/10 09:00:11;;;;;;;5.30;2.97;;;12.90;64.20;;;;;;5056180;28;20028;-70
2021/11/10 09:02:37;;;;;;;4.15;2.75;;;12.90;63.80;;;;;;5056390;28;20493;-70
2021/11/10 09:05:05;;;;;;;5.65;2.88;;;12.90;64.00;;;;;;5056232;28;20028;-69
2021/11/10 09:07:31;;;;;;;10.50;3.22;;;12.90;64.40;;;;;;5056470;28;20060;-70
2021/11/10 09:09:57;;;;;;;5.82;2.90;;;12.90;64.30;;;;;;5055963;28;20021;-70
2021/11/10 09:12:23;;;;;;;5.82;2.83;;;12.90;64.30;;;;;;5055881;28;20044;-70
2021/11/10 09:14:49;;;;;;;6.53;2.92;;;12.90;64.30;;;;;;5056048;28;20017;-71
2021/11/10 09:17:15;;;;;;;4.28;2.83;;;12.90;63.80;;;;;;5055922;28;20029;-71
2021/11/10 09:19:41;;;;;;;9.18;3.22;;;12.90;63.50;;;;;;5055661;28;20113;-70
2021/11/10 09:22:07;;;;;;;7.85;2.92;;;12.90;63.50;;;;;;5055838;28;20053;-71
2021/11/10 09:24:39;;;;;;;6.25;3.17;;;13.00;63.50;;;;;;5056010;28;20017;-71
2021/11/10 09:27:05;;;;;;;5.32;3.15;;;13.00;64.00;;;;;;5055692;28;20500;-71
2021/11/10 09:29:32;;;;;;;7.20;3.53;;;13.00;63.20;;;;;;5055654;28;20025;-71
2021/11/10 09:31:59;;;;;;;8.10;3.58;;;13.00;63.10;;;;;;5055894;28;20025;-71
2021/11/10 09:34:25;;;;;;;12.38;3.42;;;13.10;63.00;;;;;;5055732;28;20051;-71
2021/11/10 09:36:52;;;;;;;7.45;3.38;;;13.10;63.10;;;;;;5054519;28;20087;-71
2021/11/10 09:39:21;;;;;;;6.55;3.17;;;13.20;63.40;;;;;;5054153;28;20408;-71
2021/11/10 09:41:49;;;;;;;8.80;3.63;;;13.20;63.40;;;;;;5055310;28;20028;-71
2021/11/10 09:44:15;;;;;;;4.70;2.95;;;13.30;63.10;;;;;;5055464;28;20025;-71
2021/11/10 09:46:41;;;;;;;5.00;2.70;;;13.30;62.90;;;;;;5055286;28;20458;-71
2021/11/10 09:49:09;;;;;;;4.57;2.90;;;13.30;64.10;;;;;;5055168;28;20028;-71
2021/11/10 09:51:35;;;;;;;5.22;2.92;;;13.30;63.70;;;;;;5055170;28;20021;-72
2021/11/10 09:54:03;;;;;;;6.40;2.90;;;13.40;63.20;;;;;;5055439;28;20036;-71
2021/11/10 09:56:30;;;;;;;7.18;2.80;;;13.40;63.70;;;;;;5055339;28;20025;-71
2021/11/10 09:58:57;;;;;;;5.68;2.60;;;13.50;63.40;;;;;;5055125;28;20112;-71
2021/11/10 10:01:23;;;;;;;5.68;2.97;;;13.50;63.30;;;;;;5055206;28;20017;-71
2021/11/10 10:03:52;;;;;;;5.20;2.90;;;13.50;63.60;;;;;;5055111;28;20370;-71
2021/11/10 10:06:20;;;;;;;5.45;2.75;;;13.60;64.30;;;;;;5055139;28;20104;-70
2021/11/10 10:08:46;;;;;;;6.15;4.25;;;13.60;63.70;;;;;;5054788;28;20040;-70
2021/11/10 10:11:13;;;;;;;5.65;3.70;;;13.70;63.70;;;;;;5055010;28;20029;-70
2021/11/10 10:13:39;;;;;;;6.13;3.40;;;13.70;63.60;;;;;;5054750;28;20083;-70
2021/11/10 10:16:05;;;;;;;6.70;3.83;;;13.80;63.70;;;;;;5054811;28;20029;-71
2021/11/10 10:18:31;;;;;;;7.45;2.55;;;13.80;63.60;;;;;;5054777;28;20383;-70
2021/11/10 10:21:00;;;;;;;7.00;3.10;;;13.80;62.90;;;;;;5053615;28;20036;-70
2021/11/10 10:23:32;;;;;;;8.82;3.13;;;13.90;62.60;;;;;;5054732;28;20021;-71
2021/11/10 10:26:12;;;;;;;7.00;2.83;;;13.90;62.90;;;;;;5054480;28;20043;-71
2021/11/10 10:28:41;;;;;;;6.22;2.60;;;13.90;63.40;;;;;;5054494;28;20075;-70
2021/11/10 10:31:13;;;;;;;4.80;2.60;;;14.00;62.90;;;;;;5054568;28;20028;-70
2021/11/10 10:33:49;;;;;;;4.15;2.50;;;14.10;62.90;;;;;;5054508;28;20044;-70
2021/11/10 10:36:26;;;;;;;5.70;2.22;;;14.10;62.30;;;;;;5054088;28;20490;-71
2021/11/10 10:39:06;;;;;;;4.72;2.60;;;14.10;63.40;;;;;;5054207;28;20419;-71
2021/11/10 10:41:40;;;;;;;4.03;2.45;;;14.20;62.50;;;;;;5054532;28;20029;-70
2021/11/10 10:44:18;;;;;;;7.93;2.58;;;14.20;61.80;;;;;;5054475;28;20024;-71
2021/11/10 10:46:58;;;;;;;4.35;2.20;;;14.30;62.20;;;;;;5054045;28;20075;-71
2021/11/10 10:49:34;;;;;;;4.93;2.83;;;14.30;62.30;;;;;;5054273;28;20017;-71
2021/11/10 10:52:19;;;;;;;6.57;2.83;;;14.40;63.70;;;;;;5054177;28;20021;-71
2021/11/10 10:54:47;;;;;;;4.93;2.42;;;14.50;62.10;;;;;;5054049;28;20032;-71
2021/11/10 10:57:14;;;;;;;4.88;2.30;;;14.50;61.80;;;;;;5054091;28;20031;-71
2021/11/10 10:59:40;;;;;;;5.55;2.60;;;14.60;61.70;;;;;;5054041;28;20039;-71
2021/11/10 11:02:08;;;;;;;4.85;2.45;;;14.80;61.40;;;;;;5053420;28;20469;-71
2021/11/10 11:04:40;;;;;;;5.40;2.65;;;14.90;61.50;;;;;;5053783;28;20462;-71
2021/11/10 11:07:11;;;;;;;7.43;2.63;;;15.10;61.40;;;;;;5053852;28;20111;-70
2021/11/10 11:09:44;;;;;;;8.23;2.22;;;15.20;61.50;;;;;;5053668;28;20049;-71
2021/11/10 11:12:18;;;;;;;;;;;15.30;60.90;;;;;;5054074;28;20036;-71
2021/11/10 11:14:55;;;;;;;4.40;2.30;;;15.40;60.40;;;;;;5054133;28;19948;-71
2021/11/10 11:17:22;;;;;;;3.50;2.22;;;15.50;60.50;;;;;;5053681;28;20021;-71
2021/11/10 11:19:57;;;;;;;3.75;2.10;;;15.40;60.10;;;;;;5053445;28;20393;-71
2021/11/10 11:22:25;;;;;;;4.70;2.33;;;15.40;59.50;;;;;;5051966;28;20028;-71
2021/11/10 11:24:51;;;;;;;3.58;2.30;;;15.40;59.20;;;;;;5053386;28;20021;-70
2021/11/10 11:27:25;;;;;;;3.30;2.13;;;15.40;58.90;;;;;;5051193;28;20366;-71
2021/11/10 11:30:11;;;;;;;3.63;2.22;;;15.50;58.80;;;;;;5050729;28;20458;-71
2021/11/10 11:32:43;;;;;;;6.43;2.28;;;15.60;58.20;;;;;;5052128;28;20485;-71
2021/11/10 11:35:11;;;;;;;3.22;2.20;;;15.70;58.10;;;;;;5053348;28;20108;-70
2021/11/10 11:37:39;;;;;;;4.07;2.03;;;15.90;57.60;;;;;;5053242;28;20380;-71
2021/11/10 11:40:11;;;;;;;5.10;2.17;;;16.00;57.10;;;;;;5053312;28;20116;-71
2021/11/10 11:42:37;;;;;;;7.97;3.28;;;16.10;56.70;;;;;;5050964;28;20024;-71
2021/11/10 11:45:05;;;;;;;4.95;1.90;;;16.20;56.20;;;;;;5052521;28;20043;-70
2021/11/10 11:47:31;;;;;;;7.68;2.20;;;16.30;56.30;;;;;;5052712;28;20029;-70
2021/11/10 11:50:03;;;;;;;5.13;2.17;;;16.40;56.20;;;;;;5052736;28;20104;-70
2021/11/10 11:52:32;;;;;;;3.65;1.75;;;16.50;56.20;;;;;;5052487;28;20037;-70
2021/11/10 11:55:00;;;;;;;6.10;2.03;;;16.50;56.50;;;;;;5052976;28;20021;-70
2021/11/10 11:57:28;;;;;;;4.07;2.50;;;16.60;55.00;;;;;;5052712;28;20103;-70
2021/11/10 11:59:57;;;;;;;3.55;1.90;;;16.60;55.80;;;;;;5052763;28;20032;-70
2021/11/10 12:02:28;;;;;;;3.72;2.03;;;16.60;56.00;;;;;;5052707;28;20021;-70
2021/11/10 12:04:56;;;;;;;3.97;2.35;;;16.70;55.70;;;;;;5053082;28;20056;-70
2021/11/10 12:07:46;;;;;;;5.95;2.17;;;16.60;54.90;;;;;;5052748;28;20017;-70
2021/11/10 12:10:33;;;;;;;7.47;2.63;;;16.60;54.90;;;;;;5052732;28;20028;-70
2021/11/10 12:13:13;;;;;;;5.18;2.42;;;16.50;55.40;;;;;;5053352;28;20033;-70
2021/11/10 12:16:01;;;;;;;6.47;2.30;;;16.40;56.10;;;;;;5056672;28;20025;-70
2021/11/10 12:18:40;;;;;;;6.18;2.53;;;16.20;56.70;;;;;;5056538;28;20386;-70
2021/11/10 12:21:06;;;;;;;3.22;2.40;;;16.30;56.90;;;;;;5056795;28;20079;-71
2021/11/10 12:23:50;;;;;;;4.50;2.42;;;16.20;56.30;;;;;;5056608;28;20481;-71
2021/11/10 12:26:17;;;;;;;5.10;2.40;;;16.20;56.10;;;;;;5056943;28;20021;-71
2021/11/10 12:28:57;;;;;;;5.38;2.63;;;16.30;56.80;;;;;;5055183;28;20362;-71
2021/11/10 12:31:35;;;;;;;6.55;4.57;;;16.40;56.30;;;;;;5056629;28;20021;-70
2021/11/10 12:34:27;;;;;;;5.53;2.42;;;16.50;55.40;;;;;;5056813;28;20025;-70
2021/11/10 12:37:03;;;;;;;9.18;2.10;;;16.60;53.80;;;;;;5056454;28;20032;-71
2021/11/10 12:39:33;;;;;;;7.20;2.50;;;16.70;54.30;;;;;;5056151;28;20052;-71
2021/11/10 12:42:03;;;;;;;6.57;2.35;;;16.60;54.50;;;;;;5053300;28;20091;-71
2021/11/10 12:44:30;;;;;;;5.07;2.00;;;16.70;53.90;;;;;;5053499;28;20025;-70
2021/11/10 12:46:57;;;;;;;3.58;1.80;;;16.70;53.90;;;;;;5054597;28;20021;-70
2021/11/10 12:49:24;;;;;;;6.30;2.35;;;16.80;53.80;;;;;;5056004;28;20025;-70
2021/11/10 12:52:12;;;;;;;4.40;2.08;;;16.80;53.60;;;;;;5056192;28;20462;-70